Time;durP1;ratioP1;P1;durP2;ratioP2;P2;SDS_P1;SDS_P2;PMS_P1;PMS_P2;Temp;Humidity;BMP_temperature;BMP_pressure;BME280_temperature;BME280_humidity;BME280_pressure;Samples;Min_cycle;Max_cycle;Signal;HPM_P1;HPM_P2
2022/06/26 00:00:19;;;;;;;10.00;9.00;;;;;;;;;;5094371;28;20067;-70
2022/06/26 00:02:45;;;;;;;13.52;8.95;;;;;;;;;;5093115;28;20539;-70
2022/06/26 00:05:11;;;;;;;10.10;8.60;;;;;;;;;;5094827;28;20024;-70
2022/06/26 00:07:36;;;;;;;10.55;8.90;;;;;;;;;;5094907;28;20040;-70
2022/06/26 00:10:02;;;;;;;12.00;9.52;;;;;;;;;;5094852;28;20089;-71
2022/06/26 00:12:30;;;;;;;10.32;9.07;;;;;;;;;;5094010;28;20115;-70
2022/06/26 00:14:56;;;;;;;12.25;8.68;;;;;;;;;;5093993;28;20024;-70
2022/06/26 00:17:21;;;;;;;10.00;8.60;;;;;;;;;;5093883;28;20043;-71
2022/06/26 00:19:46;;;;;;;10.50;9.40;;;;;;;;;;5094072;28;20259;-70
2022/06/26 00:22:11;;;;;;;10.40;9.00;;;;;;;;;;5093996;28;20381;-70
2022/06/26 00:24:37;;;;;;;14.27;8.20;;;;;;;;;;5093820;28;20256;-70
2022/06/26 00:27:03;;;;;;;11.50;8.68;;;;;;;;;;5093809;28;20279;-69
2022/06/26 00:29:30;;;;;;;9.70;8.55;;;;;;;;;;5094244;28;20039;-70
2022/06/26 00:31:55;;;;;;;12.18;8.60;;;;;;;;;;5094484;28;20059;-70
2022/06/26 00:34:20;;;;;;;11.90;8.67;;;;;;;;;;5094490;28;20069;-71
2022/06/26 00:36:46;;;;;;;13.47;8.80;;;;;;;;;;5094210;28;20325;-70
2022/06/26 00:39:11;;;;;;;14.73;8.23;;;;;;;;;;5094767;28;20338;-70
2022/06/26 00:41:38;;;;;;;13.20;9.13;;;;;;;;;;5092552;28;20472;-71
2022/06/26 00:44:15;;;;;;;9.50;8.38;;;;;;;;;;5093536;28;20106;-70
2022/06/26 00:46:41;;;;;;;12.55;8.48;;;;;;;;;;5092603;28;20023;-69
2022/06/26 00:49:06;;;;;;;10.00;7.68;;;;;;;;;;5093394;28;20024;-69
2022/06/26 00:51:31;;;;;;;9.63;8.25;;;;;;;;;;5093521;28;20035;-69
2022/06/26 00:53:56;;;;;;;9.35;8.30;;;;;;;;;;5093463;28;20089;-71
2022/06/26 00:56:22;;;;;;;11.00;9.07;;;;;;;;;;5093374;28;20071;-70
2022/06/26 00:58:47;;;;;;;10.82;8.73;;;;;;;;;;5093498;28;20283;-71
2022/06/26 01:01:12;;;;;;;14.13;8.50;;;;;;;;;;5093722;28;20111;-72
2022/06/26 01:03:37;;;;;;;11.20;8.73;;;;;;;;;;5092024;28;20264;-70
2022/06/26 01:06:06;;;;;;;9.68;8.68;;;;;;;;;;5093509;28;20248;-70
2022/06/26 01:08:32;;;;;;;11.43;8.50;;;;;;;;;;5093404;28;20016;-70
2022/06/26 01:10:58;;;;;;;12.65;8.55;;;;;;;;;;5093460;28;20035;-71
2022/06/26 01:13:23;;;;;;;9.68;8.55;;;;;;;;;;5093255;28;20016;-71
2022/06/26 01:15:48;;;;;;;9.63;8.57;;;;;;;;;;5093484;28;20048;-71
2022/06/26 01:18:14;;;;;;;11.93;8.23;;;;;;;;;;5092990;28;20516;-71
2022/06/26 01:20:40;;;;;;;10.32;8.40;;;;;;;;;;5093143;28;20028;-70
2022/06/26 01:23:06;;;;;;;10.35;8.30;;;;;;;;;;5091882;28;20081;-70
2022/06/26 01:25:48;;;;;;;14.07;9.10;;;;;;;;;;5092939;28;20040;-70
2022/06/26 01:28:15;;;;;;;9.38;8.45;;;;;;;;;;5093134;28;20024;-70
2022/06/26 01:30:40;;;;;;;10.20;9.00;;;;;;;;;;5093116;28;20390;-70
2022/06/26 01:33:06;;;;;;;11.00;8.88;;;;;;;;;;5093129;28;20024;-72
2022/06/26 01:35:32;;;;;;;10.98;9.02;;;;;;;;;;5093136;28;20028;-70
2022/06/26 01:38:09;;;;;;;10.00;9.00;;;;;;;;;;5092966;28;20024;-70
2022/06/26 01:40:34;;;;;;;12.07;9.10;;;;;;;;;;5097106;28;20028;-70
2022/06/26 01:42:59;;;;;;;16.30;8.53;;;;;;;;;;5097360;28;20380;-70
2022/06/26 01:45:24;;;;;;;9.82;8.82;;;;;;;;;;5097251;28;20591;-70
2022/06/26 01:47:50;;;;;;;10.87;8.93;;;;;;;;;;5096879;28;20484;-72
2022/06/26 01:50:15;;;;;;;10.93;9.30;;;;;;;;;;5096956;28;20772;-70
2022/06/26 01:52:41;;;;;;;9.88;8.77;;;;;;;;;;5097121;28;20750;-69
2022/06/26 01:55:06;;;;;;;10.33;9.10;;;;;;;;;;5096754;28;20036;-69
2022/06/26 01:57:31;;;;;;;11.73;9.68;;;;;;;;;;5096715;28;20283;-70
2022/06/26 01:59:57;;;;;;;9.87;8.87;;;;;;;;;;5096730;28;20024;-71
2022/06/26 02:02:22;;;;;;;11.20;9.35;;;;;;;;;;5096750;28;20313;-71
2022/06/26 02:04:47;;;;;;;11.17;9.47;;;;;;;;;;5096822;28;20055;-70
2022/06/26 02:07:12;;;;;;;13.77;9.33;;;;;;;;;;5096607;28;20253;-71
2022/06/26 02:15:06;;;;;;;12.68;9.70;;;;;;;;;;5096445;28;20035;-70
2022/06/26 02:17:32;;;;;;;15.95;10.27;;;;;;;;;;5096093;28;20400;-70
2022/06/26 02:19:57;;;;;;;12.10;9.80;;;;;;;;;;5096371;28;20039;-71
2022/06/26 02:22:22;;;;;;;13.17;10.50;;;;;;;;;;5096600;28;20027;-70
2022/06/26 02:24:47;;;;;;;13.45;10.32;;;;;;;;;;5096349;28;20326;-71
2022/06/26 02:27:13;;;;;;;12.23;10.87;;;;;;;;;;5095442;28;20027;-70
2022/06/26 02:29:38;;;;;;;13.60;10.57;;;;;;;;;;5096184;28;20268;-71
2022/06/26 02:32:04;;;;;;;13.97;10.80;;;;;;;;;;5096133;28;20552;-69
2022/06/26 02:34:29;;;;;;;16.42;11.02;;;;;;;;;;5096294;28;20745;-70
2022/06/26 02:36:54;;;;;;;19.87;10.90;;;;;;;;;;5095992;28;20035;-71
2022/06/26 02:39:20;;;;;;;13.40;11.23;;;;;;;;;;5096057;28;20252;-71
2022/06/26 02:41:45;;;;;;;13.23;10.87;;;;;;;;;;5095923;28;20045;-71
2022/06/26 02:44:10;;;;;;;12.23;10.10;;;;;;;;;;5094726;28;20264;-71
2022/06/26 02:46:35;;;;;;;13.27;10.95;;;;;;;;;;5095880;28;20291;-69
2022/06/26 02:49:00;;;;;;;15.67;10.53;;;;;;;;;;5095751;28;20023;-71
2022/06/26 02:51:26;;;;;;;13.23;11.63;;;;;;;;;;5095595;28;20264;-71
2022/06/26 02:53:52;;;;;;;15.67;12.07;;;;;;;;;;5096070;28;20261;-71
2022/06/26 02:56:17;;;;;;;13.00;11.50;;;;;;;;;;5094444;28;20257;-71
2022/06/26 02:58:42;;;;;;;12.80;11.43;;;;;;;;;;5095587;28;20020;-71
2022/06/26 03:01:07;;;;;;;14.40;10.97;;;;;;;;;;5095601;28;20028;-71
2022/06/26 03:03:33;;;;;;;16.10;11.65;;;;;;;;;;5095758;28;20252;-70
2022/06/26 03:05:58;;;;;;;14.20;11.80;;;;;;;;;;5095622;28;20032;-71
2022/06/26 03:08:23;;;;;;;14.95;11.82;;;;;;;;;;5095699;28;20260;-71
2022/06/26 03:10:50;;;;;;;17.27;11.80;;;;;;;;;;5095398;28;20028;-71
2022/06/26 03:13:15;;;;;;;14.63;11.70;;;;;;;;;;5095424;28;20020;-71
2022/06/26 03:15:41;;;;;;;15.70;11.30;;;;;;;;;;5095309;28;20028;-70
2022/06/26 03:18:06;;;;;;;12.48;11.18;;;;;;;;;;5095187;28;20024;-70
2022/06/26 03:20:32;;;;;;;13.60;11.73;;;;;;;;;;5095478;28;20028;-70
2022/06/26 03:22:57;;;;;;;13.95;11.52;;;;;;;;;;5095348;28;20055;-71
2022/06/26 03:25:22;;;;;;;14.15;12.05;;;;;;;;;;5095301;28;20047;-71
2022/06/26 03:27:48;;;;;;;16.58;11.82;;;;;;;;;;5095112;28;20500;-70
2022/06/26 03:30:13;;;;;;;18.67;12.63;;;;;;;;;;5095308;28;20020;-71
2022/06/26 03:32:39;;;;;;;14.98;13.32;;;;;;;;;;5095049;28;20028;-70
2022/06/26 03:35:04;;;;;;;14.57;12.18;;;;;;;;;;5096418;28;20043;-79
2022/06/26 03:37:30;;;;;;;19.92;13.75;;;;;;;;;;5101168;28;20027;-78
2022/06/26 03:39:55;;;;;;;17.10;13.57;;;;;;;;;;5102790;28;20028;-78
2022/06/26 03:42:20;;;;;;;16.23;12.63;;;;;;;;;;5102692;28;20055;-78
2022/06/26 03:44:45;;;;;;;14.88;12.75;;;;;;;;;;5102342;28;20260;-78
2022/06/26 03:47:11;;;;;;;16.00;13.40;;;;;;;;;;5106788;28;20120;-78
2022/06/26 03:49:36;;;;;;;19.27;13.13;;;;;;;;;;5108230;28;20267;-78
2022/06/26 03:52:03;;;;;;;17.70;14.40;;;;;;;;;;5108092;28;20469;-78
2022/06/26 03:54:30;;;;;;;18.35;13.65;;;;;;;;;;5108281;28;20028;-78
2022/06/26 03:56:55;;;;;;;16.10;13.45;;;;;;;;;;5108468;28;20027;-78
2022/06/26 03:59:20;;;;;;;17.50;14.03;;;;;;;;;;5106018;28;20032;-78
2022/06/26 04:01:45;;;;;;;20.63;14.60;;;;;;;;;;5101001;28;20290;-78
2022/06/26 04:04:11;;;;;;;18.67;12.97;;;;;;;;;;5101844;28;20272;-78
2022/06/26 04:06:36;;;;;;;19.98;14.27;;;;;;;;;;5108853;28;20315;-78
2022/06/26 04:09:03;;;;;;;18.58;14.32;;;;;;;;;;5104981;28;20473;-77
2022/06/26 04:11:28;;;;;;;18.27;14.20;;;;;;;;;;5100155;28;20032;-79
2022/06/26 04:13:54;;;;;;;16.30;13.83;;;;;;;;;;5097944;28;20501;-81
2022/06/26 04:16:19;;;;;;;19.02;14.20;;;;;;;;;;5097086;28;20256;-79
2022/06/26 04:18:45;;;;;;;17.52;14.10;;;;;;;;;;5100257;28;20036;-78
2022/06/26 04:21:10;;;;;;;19.75;15.68;;;;;;;;;;5099264;28;20098;-78
2022/06/26 04:23:35;;;;;;;20.80;14.30;;;;;;;;;;5107472;28;20028;-79
2022/06/26 04:26:05;;;;;;;17.83;14.68;;;;;;;;;;5106291;28;20023;-79
2022/06/26 04:28:30;;;;;;;18.42;14.82;;;;;;;;;;5101847;28;20024;-79
2022/06/26 04:30:55;;;;;;;19.25;14.63;;;;;;;;;;5102604;28;20031;-77
2022/06/26 04:33:21;;;;;;;22.63;15.10;;;;;;;;;;5096465;28;20031;-78
2022/06/26 04:35:46;;;;;;;23.07;15.70;;;;;;;;;;5100097;28;20256;-78
2022/06/26 04:38:11;;;;;;;18.98;14.07;;;;;;;;;;5097094;28;20310;-79
2022/06/26 04:40:37;;;;;;;20.45;15.70;;;;;;;;;;5101045;28;20107;-78
2022/06/26 04:43:02;;;;;;;18.42;14.70;;;;;;;;;;5100145;28;20031;-77
2022/06/26 04:45:27;;;;;;;23.02;14.13;;;;;;;;;;5099486;28;20020;-78
2022/06/26 04:47:52;;;;;;;19.25;15.07;;;;;;;;;;5095035;28;20024;-78
2022/06/26 04:50:18;;;;;;;21.13;14.53;;;;;;;;;;5105254;28;20059;-78
2022/06/26 04:52:47;;;;;;;18.07;14.77;;;;;;;;;;5104121;28;20252;-78
2022/06/26 04:55:13;;;;;;;20.00;14.77;;;;;;;;;;5097767;28;20398;-78
2022/06/26 04:57:38;;;;;;;19.33;15.02;;;;;;;;;;5098744;28;20024;-79
2022/06/26 05:00:08;;;;;;;18.50;15.38;;;;;;;;;;5100307;28;20623;-78
2022/06/26 05:02:34;;;;;;;18.30;14.13;;;;;;;;;;5103658;28;20043;-79
2022/06/26 05:04:59;;;;;;;21.83;15.45;;;;;;;;;;5100280;28;20057;-77
2022/06/26 05:07:24;;;;;;;18.33;14.47;;;;;;;;;;5103581;28;20019;-77
2022/06/26 05:09:50;;;;;;;20.93;14.63;;;;;;;;;;5100707;28;20264;-79
2022/06/26 05:12:15;;;;;;;17.23;14.63;;;;;;;;;;5102704;28;20263;-79
2022/06/26 05:14:40;;;;;;;18.43;15.00;;;;;;;;;;5100893;28;20306;-78
2022/06/26 05:17:05;;;;;;;21.10;14.13;;;;;;;;;;5099888;28;20792;-78
2022/06/26 05:19:31;;;;;;;18.17;13.90;;;;;;;;;;5103747;28;20617;-78
2022/06/26 05:21:56;;;;;;;19.10;13.20;;;;;;;;;;5099965;28;20024;-79
2022/06/26 05:24:21;;;;;;;16.75;12.80;;;;;;;;;;5099555;28;20024;-78
2022/06/26 05:26:46;;;;;;;16.03;13.07;;;;;;;;;;5100237;28;20046;-78
2022/06/26 05:29:12;;;;;;;17.02;12.93;;;;;;;;;;5097108;28;20253;-78
2022/06/26 05:31:37;;;;;;;16.93;12.57;;;;;;;;;;5097790;28;20028;-78
2022/06/26 05:34:03;;;;;;;14.23;12.07;;;;;;;;;;5102358;28;20267;-79
2022/06/26 05:36:28;;;;;;;16.02;12.02;;;;;;;;;;5107910;28;20039;-79
2022/06/26 05:38:54;;;;;;;17.50;12.02;;;;;;;;;;5109310;28;20016;-79
2022/06/26 05:41:19;;;;;;;16.63;12.10;;;;;;;;;;5108842;28;20039;-79
2022/06/26 05:43:45;;;;;;;12.67;11.13;;;;;;;;;;5110223;28;20024;-79
2022/06/26 05:46:10;;;;;;;16.23;11.02;;;;;;;;;;5107033;28;20355;-79
2022/06/26 05:48:35;;;;;;;13.88;11.50;;;;;;;;;;5105601;28;20085;-79
2022/06/26 05:51:00;;;;;;;16.42;10.88;;;;;;;;;;5102933;28;20035;-78
2022/06/26 05:53:26;;;;;;;13.95;11.05;;;;;;;;;;5105439;28;20032;-78
2022/06/26 05:55:51;;;;;;;14.48;10.65;;;;;;;;;;5107741;28;20020;-79
2022/06/26 05:58:17;;;;;;;18.20;10.52;;;;;;;;;;5106845;28;20031;-79
2022/06/26 06:00:42;;;;;;;15.68;10.57;;;;;;;;;;5106150;28;20040;-79
2022/06/26 06:03:08;;;;;;;16.05;10.48;;;;;;;;;;5098635;28;20370;-78
2022/06/26 06:05:34;;;;;;;12.30;10.55;;;;;;;;;;5103092;28;20115;-79
2022/06/26 06:07:59;;;;;;;13.52;10.32;;;;;;;;;;5105888;28;20045;-78
2022/06/26 06:10:26;;;;;;;12.63;10.50;;;;;;;;;;5104242;28;20061;-79
2022/06/26 06:12:52;;;;;;;11.40;9.27;;;;;;;;;;5098384;28;20481;-78
2022/06/26 06:15:19;;;;;;;10.93;9.70;;;;;;;;;;5107886;28;20051;-78
2022/06/26 06:17:44;;;;;;;11.52;9.13;;;;;;;;;;5115016;28;20020;-79
2022/06/26 06:20:14;;;;;;;11.27;8.18;;;;;;;;;;5115860;28;20039;-78
2022/06/26 06:22:53;;;;;;;8.63;7.50;;;;;;;;;;5117574;28;20840;-78
2022/06/26 06:25:19;;;;;;;8.90;7.13;;;;;;;;;;5117898;28;20027;-78
2022/06/26 06:27:45;;;;;;;7.63;6.70;;;;;;;;;;5121933;28;20004;-80
2022/06/26 06:30:11;;;;;;;8.70;6.80;;;;;;;;;;5118755;28;20024;-78
2022/06/26 06:32:37;;;;;;;7.50;6.70;;;;;;;;;;5121468;28;20064;-78
2022/06/26 06:35:03;;;;;;;7.57;6.28;;;;;;;;;;5121669;28;20023;-78
2022/06/26 06:37:28;;;;;;;9.02;6.78;;;;;;;;;;5121871;28;20047;-80
2022/06/26 06:39:56;;;;;;;10.65;6.90;;;;;;;;;;5122294;28;20012;-81
2022/06/26 06:42:22;;;;;;;10.15;7.05;;;;;;;;;;5122243;28;20031;-79
2022/06/26 06:44:47;;;;;;;7.20;6.50;;;;;;;;;;5121970;28;20009;-82
2022/06/26 06:47:12;;;;;;;10.18;6.78;;;;;;;;;;5120346;28;20080;-79
2022/06/26 06:49:38;;;;;;;8.32;6.72;;;;;;;;;;5120270;28;20092;-79
2022/06/26 06:52:04;;;;;;;9.98;6.50;;;;;;;;;;5121893;28;20051;-79
2022/06/26 06:54:29;;;;;;;6.93;6.22;;;;;;;;;;5116490;28;20457;-81
2022/06/26 06:56:54;;;;;;;7.28;6.57;;;;;;;;;;5109045;28;20043;-79
2022/06/26 06:59:20;;;;;;;6.97;6.25;;;;;;;;;;5108930;28;20020;-80
2022/06/26 07:01:45;;;;;;;7.80;6.20;;;;;;;;;;5110290;28;20055;-79
2022/06/26 07:04:11;;;;;;;7.00;6.20;;;;;;;;;;5109108;28;20058;-80
2022/06/26 07:06:36;;;;;;;6.40;5.60;;;;;;;;;;5108225;28;20248;-78
2022/06/26 07:09:03;;;;;;;5.97;5.38;;;;;;;;;;5108715;28;20027;-79
2022/06/26 07:11:28;;;;;;;7.30;5.47;;;;;;;;;;5107982;28;20050;-79
2022/06/26 07:13:53;;;;;;;5.30;4.80;;;;;;;;;;5105885;28;20020;-78
2022/06/26 07:16:19;;;;;;;6.53;5.60;;;;;;;;;;5109207;28;20035;-78
2022/06/26 07:18:44;;;;;;;9.13;5.00;;;;;;;;;;5108234;28;20279;-78
2022/06/26 07:21:09;;;;;;;6.23;4.90;;;;;;;;;;5108018;28;20282;-78
2022/06/26 07:23:35;;;;;;;5.85;4.75;;;;;;;;;;5110178;28;20260;-79
2022/06/26 07:26:00;;;;;;;5.35;4.22;;;;;;;;;;5111156;28;20023;-79
2022/06/26 07:28:25;;;;;;;7.85;4.50;;;;;;;;;;5109482;28;20027;-78
2022/06/26 07:30:51;;;;;;;5.82;4.30;;;;;;;;;;5106449;28;20108;-78
2022/06/26 07:36:00;;;;;;;5.55;4.28;;;;;;;;;;5107729;28;20066;-79
2022/06/26 07:38:26;;;;;;;4.70;4.20;;;;;;;;;;5102755;28;20016;-78
2022/06/26 07:40:52;;;;;;;5.77;3.83;;;;;;;;;;5103264;28;20035;-80
2022/06/26 07:43:17;;;;;;;3.90;3.50;;;;;;;;;;5107652;28;20053;-79
2022/06/26 07:45:43;;;;;;;5.07;3.60;;;;;;;;;;5109470;28;20111;-79
2022/06/26 07:48:08;;;;;;;5.13;3.83;;;;;;;;;;5107035;28;20024;-78
2022/06/26 07:50:33;;;;;;;4.82;3.65;;;;;;;;;;5110608;28;20286;-78
2022/06/26 07:52:59;;;;;;;4.20;3.70;;;;;;;;;;5109635;28;20042;-79
2022/06/26 07:55:24;;;;;;;4.37;3.10;;;;;;;;;;5104121;28;20049;-79
2022/06/26 07:57:49;;;;;;;6.20;3.45;;;;;;;;;;5109482;28;20048;-79
2022/06/26 08:00:15;;;;;;;6.87;4.00;;;;;;;;;;5109875;28;20036;-78
2022/06/26 08:02:40;;;;;;;3.78;3.40;;;;;;;;;;5109451;28;20339;-77
2022/06/26 08:05:06;;;;;;;3.80;3.40;;;;;;;;;;5108227;28;20089;-78
2022/06/26 08:07:32;;;;;;;3.63;3.22;;;;;;;;;;5103314;28;20047;-79
2022/06/26 08:09:57;;;;;;;5.47;3.22;;;;;;;;;;5105126;28;20024;-78
2022/06/26 08:12:22;;;;;;;3.47;3.17;;;;;;;;;;5102688;28;20112;-79
2022/06/26 08:14:48;;;;;;;4.57;3.30;;;;;;;;;;5109247;28;20024;-78
2022/06/26 08:17:13;;;;;;;5.30;3.50;;;;;;;;;;5105099;28;20092;-78
2022/06/26 08:19:38;;;;;;;4.93;3.60;;;;;;;;;;5103933;28;20252;-78
2022/06/26 08:22:04;;;;;;;5.20;3.50;;;;;;;;;;5103196;28;20314;-79
2022/06/26 08:24:31;;;;;;;5.15;3.00;;;;;;;;;;5103607;28;20741;-79
2022/06/26 08:26:57;;;;;;;4.32;3.05;;;;;;;;;;5107138;28;20024;-77
2022/06/26 08:29:22;;;;;;;3.28;2.90;;;;;;;;;;5099588;28;20103;-77
2022/06/26 08:31:47;;;;;;;6.30;2.90;;;;;;;;;;5099108;28;20024;-79
2022/06/26 08:34:13;;;;;;;3.40;3.10;;;;;;;;;;5105518;28;20260;-79
2022/06/26 08:36:41;;;;;;;3.47;2.90;;;;;;;;;;5108591;28;20287;-79
2022/06/26 08:39:07;;;;;;;5.65;3.05;;;;;;;;;;5108212;28;20279;-78
2022/06/26 08:41:39;;;;;;;3.08;2.78;;;;;;;;;;5105463;28;20028;-79
2022/06/26 08:44:06;;;;;;;4.43;2.78;;;;;;;;;;5106427;28;20037;-79
2022/06/26 08:46:36;;;;;;;4.22;3.08;;;;;;;;;;5109377;28;20054;-79
2022/06/26 08:49:06;;;;;;;4.20;3.00;;;;;;;;;;5106048;28;20020;-78
2022/06/26 08:51:32;;;;;;;4.32;2.85;;;;;;;;;;5104037;28;20062;-80
2022/06/26 08:53:58;;;;;;;4.10;3.20;;;;;;;;;;5108050;28;20028;-78
2022/06/26 08:56:23;;;;;;;4.85;3.00;;;;;;;;;;5110473;28;20026;-79
2022/06/26 08:58:48;;;;;;;4.03;2.80;;;;;;;;;;5106525;28;20083;-80
2022/06/26 09:01:14;;;;;;;3.65;3.15;;;;;;;;;;5108810;28;20302;-79
2022/06/26 09:03:39;;;;;;;3.50;3.03;;;;;;;;;;5107391;28;20031;-79
2022/06/26 09:06:05;;;;;;;5.63;3.20;;;;;;;;;;5105790;28;20112;-78
2022/06/26 09:08:41;;;;;;;4.57;3.53;;;;;;;;;;5106656;28;20485;-79
2022/06/26 09:11:07;;;;;;;3.17;2.88;;;;;;;;;;5109325;28;20249;-79
2022/06/26 09:13:40;;;;;;;5.07;2.70;;;;;;;;;;5106702;28;20024;-79
2022/06/26 09:16:06;;;;;;;;;;;;;;;;;;5106627;28;20497;-78
2022/06/26 09:18:37;;;;;;;4.00;2.67;;;;;;;;;;5107929;28;19919;-79
2022/06/26 09:21:05;;;;;;;5.40;2.80;;;;;;;;;;5107028;28;20032;-79
2022/06/26 09:23:32;;;;;;;4.18;2.67;;;;;;;;;;5108875;28;20020;-79
2022/06/26 09:25:58;;;;;;;4.15;2.70;;;;;;;;;;5101872;28;20035;-83
2022/06/26 09:28:24;;;;;;;5.82;2.50;;;;;;;;;;5097416;28;20434;-82
2022/06/26 09:30:50;;;;;;;2.63;2.40;;;;;;;;;;5097745;28;20476;-83
2022/06/26 09:33:20;;;;;;;2.72;2.20;;;;;;;;;;5098626;28;20035;-78
2022/06/26 09:35:46;;;;;;;4.47;2.40;;;;;;;;;;5105303;28;20024;-78
2022/06/26 09:38:16;;;;;;;3.60;2.10;;;;;;;;;;5105819;28;20047;-78
2022/06/26 09:40:47;;;;;;;3.40;2.40;;;;;;;;;;5101973;28;20028;-77
2022/06/26 09:43:15;;;;;;;3.17;2.20;;;;;;;;;;5106441;28;20028;-79
2022/06/26 09:45:41;;;;;;;6.53;2.35;;;;;;;;;;5104194;28;20491;-78
2022/06/26 09:48:09;;;;;;;4.97;2.53;;;;;;;;;;5101913;28;20069;-79
2022/06/26 09:50:35;;;;;;;3.97;2.53;;;;;;;;;;5105870;28;20465;-78
2022/06/26 09:53:01;;;;;;;3.50;2.35;;;;;;;;;;5105820;28;20032;-79
2022/06/26 09:55:26;;;;;;;3.42;2.45;;;;;;;;;;5103092;28;20028;-78
2022/06/26 09:57:52;;;;;;;4.15;2.30;;;;;;;;;;5106077;28;20024;-79
2022/06/26 10:00:17;;;;;;;3.38;2.40;;;;;;;;;;5108104;28;20036;-78
2022/06/26 10:08:18;;;;;;;2.65;2.30;;;;;;;;;;5112626;28;20084;-80
2022/06/26 10:10:44;;;;;;;2.80;2.38;;;;;;;;;;5106052;28;20024;-79
2022/06/26 10:13:11;;;;;;;3.72;2.35;;;;;;;;;;5106946;28;20028;-79
2022/06/26 10:15:53;;;;;;;4.32;2.33;;;;;;;;;;5109410;28;20028;-79
2022/06/26 10:18:49;;;;;;;4.72;2.20;;;;;;;;;;5111688;28;20036;-80
2022/06/26 10:21:17;;;;;;;3.60;2.20;;;;;;;;;;5108387;28;20089;-78
2022/06/26 10:23:45;;;;;;;2.50;2.13;;;;;;;;;;5109972;28;20036;-79
2022/06/26 10:26:18;;;;;;;2.35;1.80;;;;;;;;;;5107874;28;20020;-78
2022/06/26 10:29:07;;;;;;;3.25;2.25;;;;;;;;;;5108161;28;20020;-83
2022/06/26 10:31:41;;;;;;;3.50;2.33;;;;;;;;;;5103124;28;20031;-78
2022/06/26 10:34:13;;;;;;;2.30;1.98;;;;;;;;;;5102090;28;20032;-79
2022/06/26 10:36:38;;;;;;;4.22;2.35;;;;;;;;;;5106685;28;20072;-79
2022/06/26 10:39:05;;;;;;;2.40;2.13;;;;;;;;;;5105969;28;20023;-78
2022/06/26 10:44:44;;;;;;;3.00;2.40;;;;;;;;;;5099019;28;20027;-80
2022/06/26 10:47:14;;;;;;;6.20;2.30;;;;;;;;;;5099050;28;20036;-80
2022/06/26 10:49:52;;;;;;;3.83;2.22;;;;;;;;;;5100975;28;20020;-78
2022/06/26 10:52:31;;;;;;;3.28;2.22;;;;;;;;;;5104908;28;20035;-78
2022/06/26 10:55:02;;;;;;;5.18;2.30;;;;;;;;;;5102548;28;20024;-78
2022/06/26 10:57:36;;;;;;;4.32;2.10;;;;;;;;;;5102346;28;20020;-79
2022/06/26 11:00:04;;;;;;;3.85;2.30;;;;;;;;;;5104282;28;20028;-78
2022/06/26 11:02:36;;;;;;;3.33;2.30;;;;;;;;;;5107706;28;20028;-78
2022/06/26 11:05:03;;;;;;;4.63;2.30;;;;;;;;;;5106539;28;20550;-78
2022/06/26 11:07:28;;;;;;;5.43;2.60;;;;;;;;;;5103568;28;20035;-78
2022/06/26 11:09:59;;;;;;;5.30;2.70;;;;;;;;;;5101627;28;20381;-80
2022/06/26 11:12:24;;;;;;;5.03;2.30;;;;;;;;;;5102885;28;20023;-78
2022/06/26 11:14:49;;;;;;;3.47;2.30;;;;;;;;;;5105234;28;20027;-79
2022/06/26 11:17:22;;;;;;;3.60;2.30;;;;;;;;;;5103239;28;20036;-77
2022/06/26 11:22:31;;;;;;;2.88;2.25;;;;;;;;;;5100960;28;20030;-78
2022/06/26 11:24:57;;;;;;;5.68;2.20;;;;;;;;;;5105184;28;20146;-77
2022/06/26 11:27:23;;;;;;;3.72;2.53;;;;;;;;;;5100150;28;20035;-79
2022/06/26 11:29:48;;;;;;;3.63;2.47;;;;;;;;;;5106778;28;20095;-78
2022/06/26 11:32:14;;;;;;;2.97;2.38;;;;;;;;;;5103254;28;20078;-78
2022/06/26 11:34:49;;;;;;;3.47;2.60;;;;;;;;;;5105297;28;20024;-79
2022/06/26 11:37:14;;;;;;;6.47;2.70;;;;;;;;;;5100112;28;20024;-78
2022/06/26 11:39:41;;;;;;;4.53;2.60;;;;;;;;;;5102761;28;20063;-79
2022/06/26 11:42:22;;;;;;;3.35;2.70;;;;;;;;;;5101787;28;20070;-78
2022/06/26 11:44:54;;;;;;;4.05;2.53;;;;;;;;;;5104217;28;20052;-77
2022/06/26 11:47:21;;;;;;;4.20;2.53;;;;;;;;;;5099693;28;20043;-78
2022/06/26 11:49:46;;;;;;;2.67;2.47;;;;;;;;;;5100782;28;20016;-78
2022/06/26 11:52:13;;;;;;;2.78;2.58;;;;;;;;;;5101468;28;20043;-78
2022/06/26 11:54:38;;;;;;;3.65;2.80;;;;;;;;;;5100590;28;20477;-77
2022/06/26 11:57:05;;;;;;;4.88;2.80;;;;;;;;;;5101885;28;20028;-79
2022/06/26 11:59:31;;;;;;;2.90;2.70;;;;;;;;;;5101223;28;20088;-79
2022/06/26 12:01:56;;;;;;;5.03;3.07;;;;;;;;;;5105191;28;20024;-79
2022/06/26 12:04:24;;;;;;;4.13;2.93;;;;;;;;;;5103508;28;20081;-78
2022/06/26 12:06:51;;;;;;;5.55;3.10;;;;;;;;;;5102877;28;20288;-78
2022/06/26 12:09:20;;;;;;;4.20;3.58;;;;;;;;;;5101036;28;20027;-78
2022/06/26 12:11:46;;;;;;;4.28;3.55;;;;;;;;;;5102365;28;20554;-79
2022/06/26 12:14:13;;;;;;;4.10;3.70;;;;;;;;;;5103383;28;20028;-78
2022/06/26 12:16:47;;;;;;;4.53;3.65;;;;;;;;;;5104951;28;20026;-81
2022/06/26 12:19:13;;;;;;;4.55;4.15;;;;;;;;;;5116348;28;20027;-77
2022/06/26 12:21:38;;;;;;;4.95;4.03;;;;;;;;;;5110081;28;20055;-75
2022/06/26 12:24:10;;;;;;;4.40;3.60;;;;;;;;;;5106902;28;20019;-75
2022/06/26 12:26:37;;;;;;;7.80;4.20;;;;;;;;;;5109385;28;20454;-77
2022/06/26 12:29:09;;;;;;;4.75;3.40;;;;;;;;;;5099264;28;20028;-78
2022/06/26 12:31:34;;;;;;;5.20;3.78;;;;;;;;;;5098206;28;20032;-78
2022/06/26 12:34:06;;;;;;;6.00;3.70;;;;;;;;;;5097013;28;20524;-76
2022/06/26 12:36:32;;;;;;;6.47;3.95;;;;;;;;;;5099009;28;20267;-78
2022/06/26 12:38:58;;;;;;;5.55;3.63;;;;;;;;;;5098604;28;20023;-78
2022/06/26 12:41:23;;;;;;;4.20;3.38;;;;;;;;;;5101385;28;20095;-78
2022/06/26 12:43:51;;;;;;;3.80;3.40;;;;;;;;;;5098459;28;20048;-78
2022/06/26 12:46:17;;;;;;;5.63;3.78;;;;;;;;;;5100770;28;20061;-78
2022/06/26 12:48:42;;;;;;;5.78;3.70;;;;;;;;;;5102617;28;20024;-77
2022/06/26 12:51:08;;;;;;;7.88;3.53;;;;;;;;;;5099223;28;20016;-76
2022/06/26 12:53:34;;;;;;;4.95;3.60;;;;;;;;;;5102411;28;20023;-78
2022/06/26 12:56:00;;;;;;;5.50;3.35;;;;;;;;;;5098521;28;20020;-79
2022/06/26 12:58:26;;;;;;;4.00;3.30;;;;;;;;;;5099839;28;20027;-78
2022/06/26 13:00:51;;;;;;;4.43;3.30;;;;;;;;;;5099413;28;20028;-77
2022/06/26 13:03:17;;;;;;;5.35;3.20;;;;;;;;;;5097813;28;20035;-78
2022/06/26 13:05:42;;;;;;;4.90;3.13;;;;;;;;;;5096351;28;20035;-77
2022/06/26 13:08:08;;;;;;;4.67;3.50;;;;;;;;;;5104118;28;20030;-77
2022/06/26 13:10:34;;;;;;;3.70;3.08;;;;;;;;;;5101533;28;20335;-79
2022/06/26 13:12:59;;;;;;;8.05;3.60;;;;;;;;;;5100550;28;20392;-78
2022/06/26 13:15:24;;;;;;;6.20;3.30;;;;;;;;;;5101093;28;20118;-78
2022/06/26 13:17:49;;;;;;;3.57;3.27;;;;;;;;;;5101950;28;20020;-78
2022/06/26 13:20:15;;;;;;;6.45;3.17;;;;;;;;;;5096822;28;20696;-77
2022/06/26 13:22:40;;;;;;;6.18;3.58;;;;;;;;;;5095834;28;20106;-77
2022/06/26 13:25:06;;;;;;;5.00;3.75;;;;;;;;;;5099934;28;20047;-78
2022/06/26 13:27:31;;;;;;;4.72;3.40;;;;;;;;;;5101861;28;20012;-78
2022/06/26 13:29:56;;;;;;;3.90;3.45;;;;;;;;;;5105093;28;20023;-78
2022/06/26 13:32:24;;;;;;;6.23;3.60;;;;;;;;;;5101731;28;20507;-77
2022/06/26 13:34:49;;;;;;;8.57;3.92;;;;;;;;;;5101190;28;20272;-79
2022/06/26 13:37:16;;;;;;;4.80;3.50;;;;;;;;;;5110467;28;20016;-78
2022/06/26 13:39:41;;;;;;;4.75;3.60;;;;;;;;;;5108967;28;20028;-78
2022/06/26 13:42:07;;;;;;;4.95;3.33;;;;;;;;;;5102213;28;20160;-77
2022/06/26 13:44:32;;;;;;;3.83;3.25;;;;;;;;;;5104832;28;20043;-78
2022/06/26 13:46:57;;;;;;;3.73;3.43;;;;;;;;;;5102405;28;20020;-77
2022/06/26 13:49:22;;;;;;;3.70;3.30;;;;;;;;;;5102055;28;20027;-78
2022/06/26 13:51:48;;;;;;;4.00;3.60;;;;;;;;;;5104075;28;20028;-77
2022/06/26 13:54:13;;;;;;;6.80;3.45;;;;;;;;;;5100632;28;20016;-78
2022/06/26 13:56:38;;;;;;;6.00;3.80;;;;;;;;;;5101099;28;20035;-81
2022/06/26 13:59:03;;;;;;;5.43;4.13;;;;;;;;;;5099618;28;20020;-81
2022/06/26 14:01:29;;;;;;;5.03;4.20;;;;;;;;;;5099024;28;20404;-82
2022/06/26 14:03:55;;;;;;;4.32;3.90;;;;;;;;;;5098798;28;20366;-81
2022/06/26 14:06:20;;;;;;;5.93;3.78;;;;;;;;;;5098484;28;20039;-81
2022/06/26 14:08:45;;;;;;;3.92;3.47;;;;;;;;;;5097249;28;20031;-80
2022/06/26 14:11:11;;;;;;;5.55;3.65;;;;;;;;;;5097580;28;20024;-81
2022/06/26 14:13:37;;;;;;;5.00;3.83;;;;;;;;;;5098249;28;20024;-82
2022/06/26 14:16:02;;;;;;;4.57;4.05;;;;;;;;;;5097661;28;20066;-81
2022/06/26 14:18:30;;;;;;;4.15;3.60;;;;;;;;;;5099515;28;20062;-81
2022/06/26 14:20:55;;;;;;;5.72;3.72;;;;;;;;;;5099458;28;20046;-82
2022/06/26 14:26:04;;;;;;;5.00;3.70;;;;;;;;;;5098338;28;20259;-81
2022/06/26 14:28:33;;;;;;;4.20;3.80;;;;;;;;;;5097314;28;20099;-82
2022/06/26 14:30:59;;;;;;;6.25;3.80;;;;;;;;;;5097781;28;20381;-82
2022/06/26 14:33:25;;;;;;;4.18;3.60;;;;;;;;;;5098469;28;20042;-81
2022/06/26 14:35:51;;;;;;;5.20;3.72;;;;;;;;;;5097475;28;20051;-81
2022/06/26 14:38:18;;;;;;;4.90;3.40;;;;;;;;;;5098007;28;20079;-80
2022/06/26 14:40:46;;;;;;;4.85;3.75;;;;;;;;;;5098054;28;20221;-81
2022/06/26 14:43:12;;;;;;;3.95;3.50;;;;;;;;;;5097822;28;20024;-81
2022/06/26 14:45:37;;;;;;;4.40;3.22;;;;;;;;;;5096269;28;20506;-83
2022/06/26 14:48:03;;;;;;;4.13;3.30;;;;;;;;;;5096192;28;20194;-81
2022/06/26 14:50:28;;;;;;;7.30;3.22;;;;;;;;;;5096966;28;20261;-82